createdAt,value
2019-04-06T00:01:14.958Z,12.78
2019-04-06T00:03:45.591Z,12.72
2019-04-06T00:06:16.307Z,12.72
2019-04-06T00:08:47.046Z,12.76
2019-04-06T00:11:17.698Z,12.71
2019-04-06T00:13:48.313Z,12.66
2019-04-06T00:16:18.971Z,12.55
2019-04-06T00:18:49.696Z,12.54
2019-04-06T00:21:20.331Z,12.50
2019-04-06T00:23:50.982Z,12.36
2019-04-06T00:26:21.656Z,12.28
2019-04-06T00:28:52.342Z,12.24
2019-04-06T00:31:28.691Z,12.27
2019-04-06T00:33:59.412Z,12.20
2019-04-06T00:36:30.106Z,12.24
2019-04-06T00:39:00.981Z,12.19
2019-04-06T00:41:31.761Z,12.14
2019-04-06T00:44:02.499Z,12.09
2019-04-06T00:46:33.101Z,11.97
2019-04-06T00:49:03.903Z,11.95
2019-04-06T00:51:34.442Z,11.95
2019-04-06T00:54:05.190Z,11.99
2019-04-06T00:56:35.851Z,11.98
2019-04-06T00:59:06.554Z,11.99
2019-04-06T01:01:37.311Z,11.92
2019-04-06T01:04:07.936Z,11.89
2019-04-06T01:06:38.635Z,11.92
2019-04-06T01:09:11.542Z,11.72
2019-04-06T01:11:42.305Z,11.79
2019-04-06T01:14:13.021Z,11.90
2019-04-06T01:16:43.671Z,11.82
2019-04-06T01:19:14.366Z,11.89
2019-04-06T01:21:44.967Z,11.92
2019-04-06T01:24:15.598Z,11.89
2019-04-06T01:26:46.218Z,11.84
2019-04-06T01:29:16.912Z,11.81
2019-04-06T01:31:47.621Z,11.87
2019-04-06T01:34:18.266Z,11.83
2019-04-06T01:36:48.841Z,11.81
2019-04-06T01:39:19.391Z,11.71
2019-04-06T01:41:49.943Z,11.70
2019-04-06T01:44:20.441Z,11.63
2019-04-06T01:46:51.016Z,11.75
2019-04-06T01:49:21.611Z,11.63
2019-04-06T01:51:52.523Z,11.48
2019-04-06T01:54:22.906Z,11.51
2019-04-06T01:56:53.534Z,11.38
2019-04-06T01:59:23.953Z,11.38
2019-04-06T02:02:13.305Z,11.40
2019-04-06T02:04:43.953Z,11.37
2019-04-06T02:07:14.613Z,11.34
2019-04-06T02:09:45.101Z,11.30
2019-04-06T02:12:15.816Z,11.24
2019-04-06T02:14:46.492Z,11.25
2019-04-06T02:17:16.987Z,11.23
2019-04-06T02:19:47.932Z,11.20
2019-04-06T02:22:18.481Z,11.13
2019-04-06T02:24:48.981Z,11.12
2019-04-06T02:27:19.664Z,11.22
2019-04-06T02:30:09.037Z,11.11
2019-04-06T02:32:52.366Z,11.16
2019-04-06T02:35:41.677Z,11.03
2019-04-06T02:38:23.623Z,11.01
2019-04-06T02:41:01.933Z,11.03
2019-04-06T02:43:34.313Z,10.91
2019-04-06T02:46:05.066Z,10.89
2019-04-06T02:48:35.779Z,10.92
2019-04-06T02:51:06.488Z,10.85
2019-04-06T02:53:36.968Z,10.87
2019-04-06T02:56:07.649Z,10.79
2019-04-06T02:58:38.242Z,10.80
2019-04-06T03:01:08.800Z,10.77
2019-04-06T03:03:39.485Z,10.78
2019-04-06T03:06:10.395Z,10.77
2019-04-06T03:08:41.080Z,10.79
2019-04-06T03:11:11.670Z,10.77
2019-04-06T03:13:42.710Z,10.80
2019-04-06T03:16:13.328Z,10.71
2019-04-06T03:18:43.943Z,10.67
2019-04-06T03:21:14.515Z,10.65
2019-04-06T03:23:51.085Z,10.67
2019-04-06T03:26:17.414Z,10.55
2019-04-06T03:28:48.140Z,10.58
2019-04-06T03:31:23.325Z,10.51
2019-04-06T03:33:51.003Z,10.57
2019-04-06T03:36:21.776Z,10.57
2019-04-06T03:38:52.312Z,10.57
2019-04-06T03:41:23.085Z,10.39
2019-04-06T03:43:53.627Z,10.07
2019-04-06T03:46:24.371Z,10.06
2019-04-06T03:48:54.937Z,9.93
2019-04-06T03:51:25.431Z,9.63
2019-04-06T03:53:55.969Z,9.51
2019-04-06T03:56:26.727Z,9.56
2019-04-06T03:58:57.995Z,9.68
2019-04-06T04:01:28.734Z,9.65
2019-04-06T04:03:59.398Z,9.67
2019-04-06T04:06:29.919Z,9.77
2019-04-06T04:09:00.737Z,9.71
2019-04-06T04:11:31.282Z,9.72
2019-04-06T04:14:02.169Z,9.74
2019-04-06T04:16:32.716Z,9.80
2019-04-06T04:19:03.513Z,9.81
2019-04-06T04:21:34.246Z,9.77
2019-04-06T04:24:05.052Z,9.83
2019-04-06T04:26:35.628Z,9.87
2019-04-06T04:29:06.939Z,9.89
2019-04-06T04:31:37.780Z,9.83
2019-04-06T04:34:08.595Z,10.01
2019-04-06T04:36:39.414Z,9.97
2019-04-06T04:39:10.927Z,9.88
2019-04-06T04:41:41.726Z,9.87
2019-04-06T04:44:12.888Z,9.88
2019-04-06T04:46:43.879Z,9.87
2019-04-06T04:49:22.536Z,9.86
2019-04-06T04:51:58.901Z,9.76
2019-04-06T04:54:29.681Z,9.78
2019-04-06T04:57:00.560Z,9.80
2019-04-06T04:59:31.400Z,9.84
2019-04-06T05:02:02.267Z,9.88
2019-04-06T05:04:32.900Z,9.96
2019-04-06T05:07:15.635Z,10.02
2019-04-06T05:09:46.526Z,10.19
2019-04-06T05:12:17.324Z,10.52
2019-04-06T05:15:12.022Z,10.93
2019-04-06T05:17:42.739Z,11.29
2019-04-06T05:20:14.550Z,11.91
2019-04-06T05:22:45.390Z,12.44
2019-04-06T05:25:15.971Z,12.62
2019-04-06T05:27:52.726Z,12.98
2019-04-06T05:30:19.131Z,13.21
2019-04-06T05:32:49.873Z,13.67
2019-04-06T05:35:20.644Z,13.58
2019-04-06T05:37:51.476Z,13.68
2019-04-06T05:40:22.086Z,13.54
2019-04-06T05:42:52.826Z,13.58
2019-04-06T05:45:23.489Z,13.24
2019-04-06T05:47:54.052Z,13.12
2019-04-06T05:50:24.684Z,13.20
2019-04-06T05:52:55.222Z,13.64
2019-04-06T05:55:25.872Z,14.14
2019-04-06T05:58:03.459Z,14.78
2019-04-06T06:00:29.202Z,15.28
2019-04-06T06:03:00.347Z,15.58
2019-04-06T06:05:31.927Z,16.28
2019-04-06T06:08:02.557Z,16.41
2019-04-06T06:10:33.286Z,16.58
2019-04-06T06:13:04.271Z,16.66
2019-04-06T06:15:35.010Z,16.20
2019-04-06T06:18:06.794Z,16.53
2019-04-06T06:20:37.471Z,16.32
2019-04-06T06:23:08.156Z,15.99
2019-04-06T06:25:38.774Z,16.39
2019-04-06T06:28:15.073Z,16.45
2019-04-06T06:30:42.023Z,15.88
2019-04-06T06:33:13.042Z,16.28
2019-04-06T06:35:43.768Z,16.27
2019-04-06T06:38:14.494Z,16.29
2019-04-06T06:40:45.240Z,16.99
2019-04-06T06:43:15.964Z,17.07
2019-04-06T06:45:46.813Z,16.60
2019-04-06T06:48:17.609Z,16.36
2019-04-06T06:50:48.511Z,16.21
2019-04-06T06:53:19.681Z,16.71
2019-04-06T06:55:50.380Z,16.70
2019-04-06T06:58:25.749Z,16.88
2019-04-06T07:00:53.499Z,16.98
2019-04-06T07:03:24.241Z,17.81
2019-04-06T07:05:56.587Z,18.20
2019-04-06T07:08:27.094Z,18.63
2019-04-06T07:10:57.791Z,18.49
2019-04-06T07:13:28.644Z,19.20
2019-04-06T07:15:59.896Z,19.42
2019-04-06T07:18:30.795Z,18.82
2019-04-06T07:21:01.626Z,18.30
2019-04-06T07:23:32.418Z,18.37
2019-04-06T07:26:03.175Z,18.85
2019-04-06T07:28:38.153Z,18.19
2019-04-06T07:31:06.420Z,18.62
2019-04-06T07:33:37.510Z,18.99
2019-04-06T07:36:08.203Z,20.19
2019-04-06T07:38:38.807Z,20.37
2019-04-06T07:41:09.442Z,20.06
2019-04-06T07:43:40.214Z,19.92
2019-04-06T07:46:11.000Z,19.82
2019-04-06T07:48:41.590Z,20.18
2019-04-06T07:51:12.319Z,19.75
2019-04-06T07:53:42.976Z,19.88
2019-04-06T07:56:13.750Z,21.52
2019-04-06T07:58:49.384Z,21.52
2019-04-06T08:01:16.953Z,21.72
2019-04-06T08:03:48.028Z,20.70
2019-04-06T08:06:18.759Z,20.63
2019-04-06T08:08:49.450Z,22.19
2019-04-06T08:11:20.177Z,20.50
2019-04-06T08:13:50.791Z,21.55
2019-04-06T08:16:21.301Z,22.61
2019-04-06T08:18:51.987Z,22.71
2019-04-06T08:21:22.601Z,22.40
2019-04-06T08:23:53.216Z,22.28
2019-04-06T08:26:23.943Z,21.95
2019-04-06T08:29:01.507Z,22.90
2019-04-06T08:31:27.066Z,22.49
2019-04-06T08:33:57.850Z,22.73
2019-04-06T08:36:28.719Z,22.92
2019-04-06T08:38:59.870Z,22.17
2019-04-06T08:41:30.730Z,22.36
2019-04-06T08:44:01.636Z,22.36
2019-04-06T08:46:32.552Z,21.84
2019-04-06T08:49:03.372Z,22.38
2019-04-06T08:51:34.056Z,23.27
2019-04-06T08:54:04.840Z,23.14
2019-04-06T08:56:35.417Z,23.71
2019-04-06T08:59:12.004Z,23.52
2019-04-06T09:01:38.608Z,23.20
2019-04-06T09:04:09.306Z,23.39
2019-04-06T09:06:40.270Z,23.19
2019-04-06T09:09:11.082Z,23.63
2019-04-06T09:11:42.383Z,23.15
2019-04-06T09:14:13.226Z,23.54
2019-04-06T09:16:44.341Z,23.91
2019-04-06T09:19:15.147Z,24.66
2019-04-06T09:21:45.919Z,24.96
2019-04-06T09:24:16.687Z,24.85
2019-04-06T09:26:48.455Z,24.45
2019-04-06T09:29:23.619Z,23.96
2019-04-06T09:31:51.907Z,23.49
2019-04-06T09:34:22.489Z,23.93
2019-04-06T09:36:53.166Z,24.13
2019-04-06T09:39:23.833Z,24.21
2019-04-06T09:41:54.692Z,24.91
2019-04-06T09:44:44.591Z,24.89
2019-04-06T09:47:28.031Z,24.66
2019-04-06T09:50:16.766Z,24.68
2019-04-06T09:53:01.756Z,24.77
2019-04-06T09:55:48.446Z,24.12
2019-04-06T09:58:37.995Z,23.90
2019-04-06T10:01:20.881Z,24.09
2019-04-06T10:04:02.599Z,22.90
2019-04-06T10:06:52.175Z,22.74
2019-04-06T10:09:41.693Z,25.03
2019-04-06T10:12:31.092Z,26.17
2019-04-06T10:15:20.625Z,25.34
2019-04-06T10:18:10.341Z,25.91
2019-04-06T10:21:00.271Z,25.20
2019-04-06T10:23:49.604Z,26.88
2019-04-06T10:26:36.841Z,25.65
2019-04-06T10:29:26.436Z,24.95
2019-04-06T10:32:16.042Z,24.21
2019-04-06T10:35:01.720Z,25.48
2019-04-06T10:37:51.230Z,25.89
2019-04-06T10:40:40.796Z,27.06
2019-04-06T10:43:30.394Z,26.68
2019-04-06T10:46:19.981Z,29.16
2019-04-06T10:48:56.725Z,25.12
2019-04-06T10:51:46.231Z,23.35
2019-04-06T10:54:35.750Z,23.15
2019-04-06T10:57:15.466Z,24.77
2019-04-06T11:00:01.508Z,22.62
2019-04-06T11:02:48.331Z,22.89
2019-04-06T11:05:31.630Z,21.86
2019-04-06T11:08:21.179Z,21.09
2019-04-06T11:11:10.690Z,22.03
2019-04-06T11:14:00.227Z,22.76
2019-04-06T11:16:49.786Z,21.64
2019-04-06T11:19:39.261Z,21.77
2019-04-06T11:22:27.542Z,20.30
2019-04-06T11:25:17.347Z,20.94
2019-04-06T11:28:06.932Z,22.08
2019-04-06T11:30:47.958Z,22.18
2019-04-06T11:33:37.620Z,21.33
2019-04-06T11:36:27.450Z,21.48
2019-04-06T11:39:17.032Z,21.98
2019-04-06T11:41:55.825Z,22.36
2019-04-06T11:44:37.213Z,23.11
2019-04-06T11:47:26.833Z,22.53
2019-04-06T11:50:16.627Z,21.79
2019-04-06T11:53:03.330Z,21.93
2019-04-06T11:55:40.087Z,22.04
2019-04-06T11:58:29.768Z,21.33
2019-04-06T12:01:19.746Z,21.11
2019-04-06T12:04:09.251Z,21.90
2019-04-06T12:06:50.623Z,21.41
2019-04-06T12:09:40.050Z,21.13
2019-04-06T12:12:31.104Z,21.01
2019-04-06T12:15:12.512Z,20.79
2019-04-06T12:17:51.640Z,20.10
2019-04-06T12:20:31.056Z,19.77
2019-04-06T12:23:20.849Z,20.09
2019-04-06T12:26:10.549Z,20.35
2019-04-06T12:29:00.475Z,20.15
2019-04-06T12:31:41.864Z,20.33
2019-04-06T12:34:31.470Z,20.02
2019-04-06T12:37:20.890Z,20.17
2019-04-06T12:40:10.332Z,20.58
2019-04-06T12:42:59.830Z,20.04
2019-04-06T12:45:49.340Z,20.17
2019-04-06T12:48:39.282Z,20.11
2019-04-06T12:51:19.836Z,20.17
2019-04-06T12:54:09.305Z,20.21
2019-04-06T12:56:53.016Z,20.39
2019-04-06T12:59:35.237Z,20.01
2019-04-06T13:02:14.510Z,20.09
2019-04-06T13:05:04.105Z,20.25
2019-04-06T13:07:53.691Z,19.89
2019-04-06T13:10:43.082Z,20.00
2019-04-06T13:13:23.897Z,20.21
2019-04-06T13:16:13.311Z,20.26
2019-04-06T13:19:02.710Z,20.39
2019-04-06T13:21:52.233Z,20.39
2019-04-06T13:24:41.750Z,20.44
2019-04-06T13:27:31.034Z,20.30
2019-04-06T13:30:20.784Z,20.05
2019-04-06T13:33:02.734Z,20.14
2019-04-06T13:35:52.256Z,20.10
2019-04-06T13:38:41.601Z,20.16
2019-04-06T13:41:31.461Z,20.02
2019-04-06T13:44:21.069Z,20.04
2019-04-06T13:47:04.180Z,19.80
2019-04-06T13:49:45.640Z,19.59
2019-04-06T13:52:22.281Z,19.20
2019-04-06T13:55:03.259Z,19.19
2019-04-06T13:57:38.986Z,19.27
2019-04-06T14:00:18.002Z,19.30
2019-04-06T14:02:56.796Z,19.30
2019-04-06T14:05:39.595Z,19.41
2019-04-06T14:08:29.106Z,19.52
2019-04-06T14:11:19.233Z,19.56
2019-04-06T14:14:04.231Z,19.46
2019-04-06T14:16:46.700Z,19.41
2019-04-06T14:19:33.641Z,19.43
2019-04-06T14:22:23.330Z,19.51
2019-04-06T14:25:12.861Z,19.18
2019-04-06T14:28:02.457Z,19.02
2019-04-06T14:30:51.998Z,18.81
2019-04-06T14:33:33.048Z,18.71
2019-04-06T14:36:22.446Z,18.64
2019-04-06T14:39:07.966Z,18.51
2019-04-06T14:41:57.640Z,18.55
2019-04-06T14:44:41.276Z,18.62
2019-04-06T14:47:30.870Z,18.69
2019-04-06T14:50:20.282Z,18.84
2019-04-06T14:53:09.756Z,18.82
2019-04-06T14:55:59.176Z,18.79
2019-04-06T14:58:49.196Z,18.77
2019-04-06T15:01:45.258Z,18.75
2019-04-06T15:04:20.661Z,18.63
2019-04-06T15:07:08.584Z,18.68
2019-04-06T15:09:37.940Z,18.50
2019-04-06T15:12:27.805Z,18.44
2019-04-06T15:15:17.354Z,18.43
2019-04-06T15:17:54.898Z,18.42
2019-04-06T15:20:33.032Z,18.26
2019-04-06T15:23:22.573Z,18.10
2019-04-06T15:26:06.435Z,18.01
2019-04-06T15:28:56.222Z,17.95
2019-04-06T15:31:35.099Z,17.80
2019-04-06T15:34:18.484Z,17.63
2019-04-06T15:36:59.390Z,17.67
2019-04-06T15:39:49.105Z,17.73
2019-04-06T15:42:38.681Z,17.75
2019-04-06T15:45:28.253Z,17.79
2019-04-06T15:48:17.760Z,17.65
2019-04-06T15:51:07.431Z,17.47
2019-04-06T15:53:51.052Z,17.19
2019-04-06T15:56:38.315Z,17.06
2019-04-06T15:59:27.842Z,16.90
2019-04-06T16:02:17.347Z,16.77
2019-04-06T16:05:05.168Z,16.62
2019-04-06T16:07:54.716Z,16.60
2019-04-06T16:10:34.639Z,16.50
2019-04-06T16:13:24.007Z,16.51
2019-04-06T16:16:30.089Z,16.47
2019-04-06T16:19:19.852Z,16.45
2019-04-06T16:22:09.460Z,16.40
2019-04-06T16:24:46.160Z,16.32
2019-04-06T16:27:23.287Z,16.23
2019-04-06T16:30:13.096Z,16.18
2019-04-06T16:33:02.836Z,16.09
2019-04-06T16:35:52.253Z,16.00
2019-04-06T16:38:31.527Z,15.93
2019-04-06T16:41:21.333Z,15.88
2019-04-06T16:44:10.875Z,15.83
2019-04-06T16:46:51.545Z,15.76
2019-04-06T16:49:41.160Z,15.69
2019-04-06T16:52:30.439Z,15.58
2019-04-06T16:55:14.179Z,15.49
2019-04-06T16:58:01.074Z,15.44
2019-04-06T17:00:39.829Z,15.36
2019-04-06T17:03:16.782Z,15.27
2019-04-06T17:06:06.520Z,15.20
2019-04-06T17:08:56.584Z,15.12
2019-04-06T17:11:49.757Z,15.06
2019-04-06T17:14:39.397Z,14.96
2019-04-06T17:17:29.461Z,14.86
2019-04-06T17:20:19.061Z,14.85
2019-04-06T17:23:09.675Z,14.78
2019-04-06T17:25:54.634Z,14.66
2019-04-06T17:28:47.971Z,14.58
2019-04-06T17:31:37.768Z,14.52
2019-04-06T17:34:31.422Z,14.49
2019-04-06T17:37:16.997Z,14.36
2019-04-06T17:40:07.719Z,14.34
2019-04-06T17:42:45.171Z,14.25
2019-04-06T17:45:26.607Z,14.22
2019-04-06T17:48:08.346Z,14.05
2019-04-06T17:50:57.963Z,13.63
2019-04-06T17:53:47.335Z,13.38
2019-04-06T17:56:36.813Z,13.11
2019-04-06T17:59:27.536Z,12.66
2019-04-06T18:02:17.837Z,12.63
2019-04-06T18:05:07.483Z,12.63
2019-04-06T18:07:57.869Z,12.65
2019-04-06T18:10:40.680Z,12.65
2019-04-06T18:13:30.242Z,12.62
2019-04-06T18:16:02.112Z,12.50
2019-04-06T18:18:34.031Z,12.50
2019-04-06T18:21:05.049Z,12.47
2019-04-06T18:23:36.866Z,12.42
2019-04-06T18:26:07.946Z,12.30
2019-04-06T18:28:38.887Z,12.26
2019-04-06T18:31:20.470Z,12.18
2019-04-06T18:33:58.016Z,12.22
2019-04-06T18:36:40.478Z,12.17
2019-04-06T18:39:16.371Z,12.05
2019-04-06T18:41:47.075Z,11.92
2019-04-06T18:44:21.878Z,11.84
2019-04-06T18:46:54.079Z,11.75
2019-04-06T18:49:27.597Z,11.69
2019-04-06T18:52:01.945Z,11.67
2019-04-06T18:54:32.792Z,11.58
2019-04-06T18:57:06.492Z,11.59
2019-04-06T18:59:38.076Z,11.52
2019-04-06T19:02:09.750Z,11.48
2019-04-06T19:04:40.670Z,11.42
2019-04-06T19:07:13.520Z,11.39
2019-04-06T19:09:55.892Z,11.28
2019-04-06T19:12:32.742Z,11.23
2019-04-06T19:15:08.216Z,11.00
2019-04-06T19:17:40.369Z,10.95
2019-04-06T19:20:14.720Z,10.88
2019-04-06T19:22:47.962Z,10.78
2019-04-06T19:25:22.405Z,10.73
2019-04-06T19:27:55.176Z,10.64
2019-04-06T19:30:27.514Z,10.49
2019-04-06T19:33:05.689Z,10.43
2019-04-06T19:35:40.370Z,10.54
2019-04-06T19:38:13.317Z,10.53
2019-04-06T19:40:49.737Z,10.44
2019-04-06T19:43:21.994Z,10.36
2019-04-06T19:45:52.954Z,10.28
2019-04-06T19:48:23.787Z,10.16
2019-04-06T19:50:59.006Z,10.14
2019-04-06T19:53:30.060Z,10.18
2019-04-06T19:56:05.613Z,10.21
2019-04-06T19:58:38.395Z,10.25
2019-04-06T20:01:09.242Z,10.18
2019-04-06T20:03:40.068Z,9.88
2019-04-06T20:06:15.560Z,10.02
2019-04-06T20:08:48.257Z,9.77
2019-04-06T20:11:19.308Z,9.39
2019-04-06T20:13:51.355Z,9.26
2019-04-06T20:16:22.832Z,9.20
2019-04-06T20:18:57.130Z,9.23
2019-04-06T20:21:27.968Z,9.27
2019-04-06T20:24:00.544Z,9.45
2019-04-06T20:26:32.490Z,9.63
2019-04-06T20:29:06.441Z,9.69
2019-04-06T20:31:38.482Z,9.71
2019-04-06T20:34:10.769Z,9.84
2019-04-06T20:36:41.959Z,9.95
2019-04-06T20:39:13.168Z,10.00
2019-04-06T20:41:43.986Z,9.96
2019-04-06T20:44:14.595Z,10.01
2019-04-06T20:46:47.282Z,10.08
2019-04-06T20:49:18.486Z,10.09
2019-04-06T20:51:49.623Z,10.08
2019-04-06T20:54:20.808Z,10.03
2019-04-06T20:56:56.397Z,10.05
2019-04-06T20:59:24.124Z,10.01
2019-04-06T21:01:54.572Z,10.05
2019-04-06T21:04:25.168Z,10.03
2019-04-06T21:06:55.922Z,10.05
2019-04-06T21:09:27.069Z,10.10
2019-04-06T21:11:58.089Z,10.10
2019-04-06T21:14:29.499Z,10.08
2019-04-06T21:17:00.674Z,10.10
2019-04-06T21:19:31.474Z,9.93
2019-04-06T21:22:03.025Z,9.92
2019-04-06T21:24:33.791Z,9.83
2019-04-06T21:27:05.277Z,9.76
2019-04-06T21:29:36.446Z,9.72
2019-04-06T21:32:07.391Z,9.74
2019-04-06T21:34:38.300Z,9.75
2019-04-06T21:37:08.865Z,9.78
2019-04-06T21:39:39.405Z,9.70
2019-04-06T21:42:10.638Z,9.69
2019-04-06T21:44:41.466Z,9.58
2019-04-06T21:47:12.168Z,9.65
2019-04-06T21:49:43.563Z,9.53
2019-04-06T21:52:14.445Z,9.50
2019-04-06T21:54:45.499Z,9.42
2019-04-06T21:57:16.330Z,9.32
2019-04-06T21:59:47.355Z,9.18
2019-04-06T22:02:18.121Z,9.05
2019-04-06T22:04:49.672Z,8.98
2019-04-06T22:07:20.323Z,8.88
2019-04-06T22:09:51.364Z,8.85
2019-04-06T22:12:22.663Z,8.80
2019-04-06T22:14:53.229Z,8.80
2019-04-06T22:17:24.418Z,8.82
2019-04-06T22:19:55.139Z,8.89
2019-04-06T22:22:25.934Z,8.90
2019-04-06T22:24:56.485Z,8.84
2019-04-06T22:27:27.789Z,8.85
2019-04-06T22:29:59.110Z,8.91
2019-04-06T22:32:30.126Z,8.95
2019-04-06T22:35:01.105Z,9.01
2019-04-06T22:37:32.677Z,9.03
2019-04-06T22:40:03.787Z,9.06
2019-04-06T22:42:34.635Z,9.11
2019-04-06T22:45:08.465Z,9.08
2019-04-06T22:47:39.855Z,9.02
2019-04-06T22:50:11.877Z,9.08
2019-04-06T22:52:43.490Z,9.08
2019-04-06T22:55:14.500Z,9.14
2019-04-06T22:57:45.502Z,9.07
2019-04-06T23:00:27.351Z,9.12
2019-04-06T23:03:06.971Z,9.13
2019-04-06T23:05:42.587Z,9.10
2019-04-06T23:08:13.425Z,9.10
2019-04-06T23:10:44.144Z,9.12
2019-04-06T23:13:15.027Z,9.09
2019-04-06T23:15:47.816Z,9.02
2019-04-06T23:18:18.252Z,8.90
2019-04-06T23:20:49.551Z,8.90
2019-04-06T23:23:20.866Z,8.82
2019-04-06T23:25:51.863Z,8.72
2019-04-06T23:28:22.646Z,8.65
2019-04-06T23:30:53.557Z,8.69
2019-04-06T23:33:24.430Z,8.80
2019-04-06T23:35:55.038Z,8.90
2019-04-06T23:38:26.190Z,8.93
2019-04-06T23:40:56.876Z,9.03
2019-04-06T23:43:27.697Z,9.07
2019-04-06T23:45:58.386Z,9.07
2019-04-06T23:48:28.932Z,9.07
2019-04-06T23:50:59.844Z,9.07
2019-04-06T23:53:30.535Z,9.04
2019-04-06T23:56:02.188Z,9.07
2019-04-06T23:58:33.273Z,9.07
